createdAt,value
2023-03-26T00:01:15.620Z,96525.50
2023-03-26T00:03:44.796Z,96529.50
2023-03-26T00:06:14.116Z,96533.97
2023-03-26T00:08:42.631Z,96533.50
2023-03-26T00:11:11.021Z,96535.66
2023-03-26T00:13:38.020Z,96541.38
2023-03-26T00:16:04.903Z,96554.25
2023-03-26T00:18:31.590Z,96547.66
2023-03-26T00:20:59.409Z,96546.75
2023-03-26T00:23:27.347Z,96541.03
2023-03-26T00:25:54.673Z,96546.25
2023-03-26T00:28:22.581Z,96535.78
2023-03-26T00:30:49.940Z,96546.06
2023-03-26T00:33:17.514Z,96550.59
2023-03-26T00:35:47.002Z,96552.19
2023-03-26T00:38:14.740Z,96548.06
2023-03-26T00:40:44.222Z,96535.53
2023-03-26T00:43:18.880Z,96527.56
2023-03-26T00:45:49.266Z,96529.16
2023-03-26T00:48:16.790Z,96535.97
2023-03-26T00:50:46.273Z,96528.00
2023-03-26T00:53:14.123Z,96527.19
2023-03-26T00:55:41.593Z,96517.50
2023-03-26T00:58:11.707Z,96515.25
2023-03-26T01:00:57.405Z,96521.06
2023-03-26T01:03:27.663Z,96517.53
2023-03-26T01:06:02.650Z,96510.03
2023-03-26T01:08:49.826Z,96510.13
2023-03-26T01:11:29.723Z,96499.31
2023-03-26T01:14:00.228Z,96492.91
2023-03-26T01:16:29.612Z,96498.16
2023-03-26T01:18:58.764Z,96489.38
2023-03-26T01:21:29.959Z,96483.81
2023-03-26T01:24:05.252Z,96479.00
2023-03-26T01:27:01.648Z,96472.63
2023-03-26T01:29:43.330Z,96473.66
2023-03-26T01:32:30.994Z,96464.66
2023-03-26T01:35:13.072Z,96470.91
2023-03-26T01:37:58.944Z,96468.75
2023-03-26T01:40:38.461Z,96465.56
2023-03-26T01:43:20.839Z,96449.25
2023-03-26T01:45:49.155Z,96436.63
2023-03-26T01:48:15.839Z,96432.50
2023-03-26T01:50:42.415Z,96434.56
2023-03-26T01:53:11.393Z,96424.88
2023-03-26T01:56:16.409Z,96420.88
2023-03-26T01:59:02.962Z,96416.78
2023-03-26T02:01:44.770Z,96415.31
2023-03-26T02:04:20.471Z,96408.34
2023-03-26T02:06:52.951Z,96400.25
2023-03-26T02:09:24.724Z,96397.88
2023-03-26T02:11:51.528Z,96383.28
2023-03-26T02:14:18.099Z,96385.31
2023-03-26T02:16:46.957Z,96377.69
2023-03-26T02:19:21.565Z,96380.88
2023-03-26T02:21:51.706Z,96371.31
2023-03-26T02:24:21.271Z,96367.34
2023-03-26T02:26:47.670Z,96367.09
2023-03-26T02:29:19.393Z,96368.53
2023-03-26T02:31:48.269Z,96355.66
2023-03-26T02:34:16.580Z,96350.88
2023-03-26T02:36:43.225Z,96347.25
2023-03-26T02:39:10.941Z,96347.25
2023-03-26T02:41:40.892Z,96342.00
2023-03-26T02:44:07.255Z,96335.97
2023-03-26T02:46:34.059Z,96333.13
2023-03-26T02:49:00.538Z,96325.41
2023-03-26T02:51:27.294Z,96317.63
2023-03-26T02:53:53.756Z,96317.16
2023-03-26T02:56:20.486Z,96303.03
2023-03-26T02:58:46.961Z,96300.50
2023-03-26T03:01:13.702Z,96292.63
2023-03-26T03:03:40.571Z,96291.63
2023-03-26T03:06:07.075Z,96292.19
2023-03-26T03:08:33.999Z,96279.88
2023-03-26T03:11:08.886Z,96279.88
2023-03-26T03:13:35.450Z,96270.97
2023-03-26T03:16:01.880Z,96273.84
2023-03-26T03:18:28.420Z,96270.03
2023-03-26T03:20:54.923Z,96269.91
2023-03-26T03:23:21.413Z,96265.59
2023-03-26T03:25:49.005Z,96260.34
2023-03-26T03:28:18.142Z,96258.28
2023-03-26T03:30:45.026Z,96252.56
2023-03-26T03:33:13.046Z,96254.97
2023-03-26T03:35:40.161Z,96243.22
2023-03-26T03:38:06.635Z,96235.44
2023-03-26T03:40:33.122Z,96232.25
2023-03-26T03:42:59.540Z,96230.41
2023-03-26T03:45:26.094Z,96234.16
2023-03-26T03:47:53.212Z,96228.13
2023-03-26T03:50:19.853Z,96229.72
2023-03-26T03:52:46.508Z,96225.56
2023-03-26T03:55:14.006Z,96235.13
2023-03-26T03:57:40.591Z,96227.75
2023-03-26T04:00:09.016Z,96219.25
2023-03-26T04:02:36.003Z,96214.78
2023-03-26T04:05:04.058Z,96202.25
2023-03-26T04:07:31.243Z,96210.84
2023-03-26T04:10:03.021Z,96202.25
2023-03-26T04:12:30.941Z,96195.41
2023-03-26T04:14:58.242Z,96184.91
2023-03-26T04:17:25.554Z,96193.25
2023-03-26T04:19:55.330Z,96194.28
2023-03-26T04:22:22.629Z,96186.97
2023-03-26T04:24:50.136Z,96183.31
2023-03-26T04:27:25.491Z,96182.84
2023-03-26T04:29:52.261Z,96173.63
2023-03-26T04:32:26.472Z,96169.47
2023-03-26T04:34:53.446Z,96170.75
2023-03-26T04:37:26.542Z,96166.31
2023-03-26T04:39:54.408Z,96166.63
2023-03-26T04:42:21.081Z,96161.13
2023-03-26T04:44:50.764Z,96153.03
2023-03-26T04:47:18.296Z,96151.97
2023-03-26T04:49:47.271Z,96147.88
2023-03-26T04:52:14.900Z,96131.84
2023-03-26T04:54:43.545Z,96118.34
2023-03-26T04:57:19.336Z,96119.44
2023-03-26T04:59:45.898Z,96130.66
2023-03-26T05:02:13.017Z,96135.28
2023-03-26T05:04:40.125Z,96140.06
2023-03-26T05:07:07.328Z,96139.03
2023-03-26T05:09:33.740Z,96135.28
2023-03-26T05:12:00.257Z,96130.03
2023-03-26T05:14:26.796Z,96122.16
2023-03-26T05:16:53.448Z,96129.78
2023-03-26T05:19:19.991Z,96119.06
2023-03-26T05:21:46.390Z,96109.03
2023-03-26T05:24:12.745Z,96098.72
2023-03-26T05:26:39.175Z,96091.38
2023-03-26T05:29:05.702Z,96076.91
2023-03-26T05:31:32.115Z,96074.53
2023-03-26T05:34:00.590Z,96077.72
2023-03-26T05:36:28.388Z,96080.41
2023-03-26T05:38:55.008Z,96061.59
2023-03-26T05:41:21.658Z,96051.03
2023-03-26T05:43:48.983Z,96054.16
2023-03-26T05:46:15.636Z,96051.53
2023-03-26T05:48:42.126Z,96049.44
2023-03-26T05:51:08.717Z,96046.34
2023-03-26T05:53:35.154Z,96047.13
2023-03-26T05:56:02.053Z,96045.38
2023-03-26T05:58:30.392Z,96033.28
2023-03-26T06:01:05.792Z,96027.53
2023-03-26T06:03:33.501Z,96030.19
2023-03-26T06:06:00.006Z,96034.47
2023-03-26T06:08:26.724Z,96021.44
2023-03-26T06:10:59.242Z,96016.66
2023-03-26T06:13:25.766Z,96014.59
2023-03-26T06:15:52.693Z,96018.25
2023-03-26T06:18:20.545Z,96004.09
2023-03-26T06:20:47.176Z,95999.50
2023-03-26T06:23:13.592Z,95994.81
2023-03-26T06:25:41.315Z,95997.25
2023-03-26T06:28:07.687Z,96002.81
2023-03-26T06:30:34.140Z,95994.38
2023-03-26T06:33:00.834Z,95989.13
2023-03-26T06:35:29.738Z,95993.88
2023-03-26T06:37:56.604Z,95974.97
2023-03-26T06:40:23.327Z,95967.03
2023-03-26T06:43:09.054Z,95966.13
2023-03-26T06:45:36.579Z,95962.31
2023-03-26T06:48:03.467Z,95964.13
2023-03-26T06:50:32.052Z,95948.19
2023-03-26T06:52:58.926Z,95939.47
2023-03-26T06:55:25.470Z,95944.69
2023-03-26T06:57:53.633Z,95929.34
2023-03-26T07:00:20.796Z,95919.44
2023-03-26T07:02:47.566Z,95922.13
2023-03-26T07:05:14.717Z,95915.88
2023-03-26T07:07:45.927Z,95925.25
2023-03-26T07:10:13.718Z,95915.88
2023-03-26T07:12:41.508Z,95907.16
2023-03-26T07:15:08.394Z,95908.75
2023-03-26T07:17:34.834Z,95903.00
2023-03-26T07:20:01.438Z,95900.03
2023-03-26T07:22:28.203Z,95889.81
2023-03-26T07:24:55.192Z,95884.88
2023-03-26T07:27:36.633Z,95880.13
2023-03-26T07:30:08.454Z,95870.44
2023-03-26T07:32:47.457Z,95874.88
2023-03-26T07:35:22.458Z,95857.38
2023-03-26T07:37:55.537Z,95855.56
2023-03-26T07:40:51.273Z,95862.69
2023-03-26T07:43:38.892Z,95856.88
2023-03-26T07:46:05.776Z,95834.03
2023-03-26T07:48:40.765Z,95828.25
2023-03-26T07:51:07.975Z,95844.53
2023-03-26T07:53:34.631Z,95839.22
2023-03-26T07:56:19.133Z,95848.13
2023-03-26T07:58:59.289Z,95835.50
2023-03-26T08:01:57.957Z,95830.06
2023-03-26T08:04:42.499Z,95834.78
2023-03-26T08:07:25.684Z,95840.34
2023-03-26T08:10:02.666Z,95838.25
2023-03-26T08:12:54.229Z,95822.00
2023-03-26T08:15:49.715Z,95830.44
2023-03-26T08:18:31.166Z,95824.03
2023-03-26T08:21:04.239Z,95831.66
2023-03-26T08:23:58.951Z,95810.97
2023-03-26T08:26:29.412Z,95824.47
2023-03-26T08:29:09.426Z,95821.59
2023-03-26T08:31:39.360Z,95810.13
2023-03-26T08:34:09.754Z,95800.19
2023-03-26T08:36:36.917Z,95800.72
2023-03-26T08:39:04.083Z,95815.97
2023-03-26T08:42:07.852Z,95810.13
2023-03-26T08:45:01.064Z,95802.81
2023-03-26T08:47:46.371Z,95828.00
2023-03-26T08:50:31.788Z,95830.00
2023-03-26T08:53:35.874Z,95827.69
2023-03-26T08:56:26.151Z,95817.44
2023-03-26T08:59:29.320Z,95811.91
2023-03-26T09:02:26.877Z,95813.50
2023-03-26T09:05:21.398Z,95815.03
2023-03-26T09:07:59.597Z,95824.25
2023-03-26T09:11:07.047Z,95821.16
2023-03-26T09:13:56.140Z,95822.69
2023-03-26T09:16:37.703Z,95826.97
2023-03-26T09:19:26.121Z,95829.91
2023-03-26T09:22:17.587Z,95827.31
2023-03-26T09:25:28.422Z,95836.84
2023-03-26T09:28:30.331Z,95839.97
2023-03-26T09:31:31.911Z,95845.56
2023-03-26T09:34:43.830Z,95830.56
2023-03-26T09:37:56.494Z,95825.06
2023-03-26T09:40:36.654Z,95819.53
2023-03-26T09:43:24.376Z,95819.22
2023-03-26T09:45:57.249Z,95820.50
2023-03-26T09:48:29.907Z,95815.00
2023-03-26T09:51:20.755Z,95824.19
2023-03-26T09:54:12.321Z,95820.78
2023-03-26T09:57:04.359Z,95824.25
2023-03-26T09:59:55.624Z,95811.66
2023-03-26T10:02:47.739Z,95799.69
2023-03-26T10:05:34.133Z,95810.13
2023-03-26T10:08:14.389Z,95812.25
2023-03-26T10:11:13.175Z,95826.38
2023-03-26T10:14:18.193Z,95816.44
2023-03-26T10:16:50.663Z,95832.72
2023-03-26T10:19:55.047Z,95815.13
2023-03-26T10:22:34.420Z,95818.31
2023-03-26T10:25:22.753Z,95815.88
2023-03-26T10:28:21.352Z,95809.47
2023-03-26T10:31:07.804Z,95801.84
2023-03-26T10:34:28.956Z,95818.94
2023-03-26T10:37:24.698Z,95817.09
2023-03-26T10:40:27.128Z,95811.69
2023-03-26T10:43:12.469Z,95816.19
2023-03-26T10:45:51.991Z,95806.75
2023-03-26T10:48:24.599Z,95816.25
2023-03-26T10:51:13.034Z,95811.03
2023-03-26T10:53:47.696Z,95824.47
2023-03-26T10:56:22.857Z,95810.56
2023-03-26T10:58:50.144Z,95813.75
2023-03-26T11:01:24.006Z,95820.59
2023-03-26T11:03:55.835Z,95828.97
2023-03-26T11:06:39.843Z,95829.41
2023-03-26T11:09:23.709Z,95842.34
2023-03-26T11:12:02.082Z,95846.72
2023-03-26T11:15:16.111Z,95850.91
2023-03-26T11:17:58.961Z,95842.00
2023-03-26T11:20:41.625Z,95831.72
2023-03-26T11:23:37.264Z,95824.16
2023-03-26T11:26:09.437Z,95827.50
2023-03-26T11:32:02.034Z,95827.44
2023-03-26T11:34:36.994Z,95824.22
2023-03-26T11:34:37.101Z,95813.84
2023-03-26T11:37:08.619Z,95831.38
2023-03-26T11:39:49.740Z,95825.28
2023-03-26T11:42:19.242Z,95815.66
2023-03-26T11:44:54.994Z,95821.00
2023-03-26T11:47:29.541Z,95814.13
2023-03-26T11:50:00.172Z,95814.31
2023-03-26T11:52:27.651Z,95812.63
2023-03-26T11:54:54.272Z,95808.31
2023-03-26T11:57:29.140Z,95804.97
2023-03-26T12:00:06.569Z,95806.59
2023-03-26T12:02:41.419Z,95810.16
2023-03-26T12:05:12.375Z,95810.25
2023-03-26T12:08:03.672Z,95799.75
2023-03-26T12:10:37.892Z,95791.59
2023-03-26T12:13:23.832Z,95784.84
2023-03-26T12:15:50.315Z,95780.16
2023-03-26T12:18:34.747Z,95786.53
2023-03-26T12:21:11.047Z,95780.84
2023-03-26T12:23:43.706Z,95780.16
2023-03-26T12:26:20.676Z,95772.91
2023-03-26T12:28:49.730Z,95759.72
2023-03-26T12:31:20.649Z,95753.97
2023-03-26T12:34:07.771Z,95755.84
2023-03-26T12:36:35.786Z,95754.97
2023-03-26T12:40:09.671Z,95747.13
2023-03-26T12:44:51.243Z,95738.09
2023-03-26T12:45:14.025Z,95745.19
2023-03-26T12:47:57.075Z,95735.38
2023-03-26T12:50:57.066Z,95726.09
2023-03-26T12:53:50.812Z,95720.47
2023-03-26T12:56:27.159Z,95722.75
2023-03-26T12:59:09.159Z,95726.47
2023-03-26T13:02:29.482Z,95719.81
2023-03-26T13:05:28.919Z,95711.34
2023-03-26T13:07:58.280Z,95710.03
2023-03-26T13:10:43.126Z,95702.94
2023-03-26T13:13:48.419Z,95696.56
2023-03-26T13:16:43.914Z,95705.00
2023-03-26T13:19:50.640Z,95707.47
2023-03-26T13:22:38.855Z,95700.41
2023-03-26T13:25:24.195Z,95695.91
2023-03-26T13:28:21.251Z,95700.97
2023-03-26T13:30:56.862Z,95694.56
2023-03-26T13:33:38.469Z,95699.44
2023-03-26T13:36:24.179Z,95681.66
2023-03-26T13:39:18.266Z,95690.69
2023-03-26T13:42:01.876Z,95685.19
2023-03-26T13:44:46.296Z,95681.50
2023-03-26T13:47:23.540Z,95670.38
2023-03-26T13:49:58.684Z,95660.84
2023-03-26T13:52:27.520Z,95658.06
2023-03-26T13:55:20.011Z,95673.78
2023-03-26T13:58:05.007Z,95657.44
2023-03-26T14:00:58.070Z,95661.75
2023-03-26T14:03:36.232Z,95661.47
2023-03-26T14:06:10.772Z,95673.69
2023-03-26T14:08:49.130Z,95659.78
2023-03-26T14:11:34.788Z,95657.13
2023-03-26T14:14:11.294Z,95651.34
2023-03-26T14:16:48.241Z,95646.06
2023-03-26T14:19:38.786Z,95653.00
2023-03-26T14:22:37.004Z,95654.22
2023-03-26T14:25:25.074Z,95652.91
2023-03-26T14:28:06.033Z,95654.91
2023-03-26T14:30:50.955Z,95678.75
2023-03-26T14:33:34.167Z,95682.53
2023-03-26T14:36:28.286Z,95676.91
2023-03-26T14:39:18.744Z,95673.78
2023-03-26T14:41:51.188Z,95676.91
2023-03-26T14:44:51.879Z,95671.16
2023-03-26T14:47:21.031Z,95670.63
2023-03-26T14:50:06.544Z,95676.56
2023-03-26T14:52:50.363Z,95684.66
2023-03-26T14:55:40.169Z,95685.81
2023-03-26T14:58:44.244Z,95699.44
2023-03-26T15:01:23.884Z,95706.56
2023-03-26T15:04:02.445Z,95706.13
2023-03-26T15:06:50.671Z,95706.81
2023-03-26T15:09:49.410Z,95705.25
2023-03-26T15:12:35.809Z,95702.63
2023-03-26T15:15:20.475Z,95707.22
2023-03-26T15:18:18.677Z,95709.75
2023-03-26T15:21:22.168Z,95704.06
2023-03-26T15:24:09.627Z,95720.59
2023-03-26T15:27:13.627Z,95735.97
2023-03-26T15:30:17.245Z,95741.88
2023-03-26T15:33:17.988Z,95749.25
2023-03-26T15:35:59.748Z,95744.56
2023-03-26T15:38:48.333Z,95744.09
2023-03-26T15:41:28.765Z,95758.84
2023-03-26T15:46:46.326Z,95754.63
2023-03-26T15:49:39.743Z,95745.44
2023-03-26T15:52:27.871Z,95729.81
2023-03-26T15:55:05.212Z,95740.16
2023-03-26T15:57:43.881Z,95741.84
2023-03-26T16:00:25.073Z,95735.09
2023-03-26T16:03:13.027Z,95741.31
2023-03-26T16:06:18.774Z,95761.19
2023-03-26T16:09:07.854Z,95774.94
2023-03-26T16:11:57.836Z,95777.53
2023-03-26T16:14:36.497Z,95776.81
2023-03-26T16:17:06.597Z,95765.63
2023-03-26T16:19:50.448Z,95776.25
2023-03-26T16:22:53.601Z,95771.81
2023-03-26T16:25:33.447Z,95790.34
2023-03-26T16:28:28.593Z,95801.66
2023-03-26T16:31:23.569Z,95793.72
2023-03-26T16:34:05.206Z,95803.66
2023-03-26T16:36:35.965Z,95808.56
2023-03-26T16:39:05.517Z,95806.25
2023-03-26T16:41:51.280Z,95800.25
2023-03-26T16:44:45.276Z,95814.31
2023-03-26T16:47:27.245Z,95815.25
2023-03-26T16:50:29.185Z,95811.19
2023-03-26T16:53:24.087Z,95813.34
2023-03-26T16:55:56.648Z,95821.09
2023-03-26T16:58:30.901Z,95813.75
2023-03-26T17:01:08.652Z,95817.72
2023-03-26T17:03:44.839Z,95828.75
2023-03-26T17:06:36.495Z,95821.56
2023-03-26T17:09:51.595Z,95826.00
2023-03-26T17:12:35.244Z,95820.50
2023-03-26T17:15:41.146Z,95820.31
2023-03-26T17:18:39.683Z,95827.69
2023-03-26T17:21:16.028Z,95814.44
2023-03-26T17:24:16.155Z,95829.19
2023-03-26T17:27:06.750Z,95816.66
2023-03-26T17:30:00.510Z,95830.31
2023-03-26T17:32:54.218Z,95829.72
2023-03-26T17:35:39.431Z,95823.47
2023-03-26T17:38:18.238Z,95825.53
2023-03-26T17:40:59.389Z,95824.84
2023-03-26T17:43:42.373Z,95834.34
2023-03-26T17:46:29.396Z,95827.84
2023-03-26T17:49:18.028Z,95821.00
2023-03-26T17:51:44.400Z,95816.94
2023-03-26T17:54:19.767Z,95816.63
2023-03-26T17:56:47.587Z,95810.50
2023-03-26T17:59:23.161Z,95806.44
2023-03-26T18:01:55.269Z,95813.88
2023-03-26T18:04:31.105Z,95804.31
2023-03-26T18:07:18.401Z,95805.66
2023-03-26T18:10:09.425Z,95815.91
2023-03-26T18:12:51.236Z,95813.28
2023-03-26T18:15:36.533Z,95815.84
2023-03-26T18:18:20.625Z,95828.25
2023-03-26T18:20:49.361Z,95818.03
2023-03-26T18:23:38.745Z,95818.66
2023-03-26T18:26:15.448Z,95811.94
2023-03-26T18:28:54.366Z,95816.16
2023-03-26T18:31:24.955Z,95817.19
2023-03-26T18:33:58.926Z,95827.72
2023-03-26T18:36:27.882Z,95825.78
2023-03-26T18:39:03.132Z,95819.34
2023-03-26T18:41:37.234Z,95816.84
2023-03-26T18:44:06.988Z,95831.69
2023-03-26T18:46:34.148Z,95831.03
2023-03-26T18:49:02.994Z,95829.47
2023-03-26T18:51:31.853Z,95830.53
2023-03-26T18:54:00.724Z,95823.03
2023-03-26T18:56:31.624Z,95821.94
2023-03-26T18:59:00.329Z,95818.78
2023-03-26T19:01:33.075Z,95819.97
2023-03-26T19:04:04.214Z,95821.09
2023-03-26T19:06:36.071Z,95825.03
2023-03-26T19:09:19.644Z,95826.06
2023-03-26T19:11:57.327Z,95833.41
2023-03-26T19:14:26.090Z,95821.69
2023-03-26T19:16:57.904Z,95817.84
2023-03-26T19:19:37.815Z,95827.06
2023-03-26T19:22:07.061Z,95824.69
2023-03-26T19:24:34.297Z,95818.34
2023-03-26T19:27:01.042Z,95821.56
2023-03-26T19:29:32.108Z,95821.66
2023-03-26T19:32:29.348Z,95826.50
2023-03-26T19:34:59.623Z,95829.97
2023-03-26T19:37:29.988Z,95821.50
2023-03-26T19:40:14.360Z,95824.91
2023-03-26T19:42:44.805Z,95832.44
2023-03-26T19:45:20.745Z,95822.06
2023-03-26T19:48:00.080Z,95820.84
2023-03-26T19:50:36.781Z,95816.94
2023-03-26T19:53:16.024Z,95824.88
2023-03-26T19:55:53.213Z,95832.22
2023-03-26T19:58:19.782Z,95816.75
2023-03-26T20:00:46.283Z,95816.34
2023-03-26T20:03:13.300Z,95807.69
2023-03-26T20:05:39.830Z,95809.34
2023-03-26T20:08:14.201Z,95801.53
2023-03-26T20:10:41.502Z,95804.09
2023-03-26T20:13:17.770Z,95803.59
2023-03-26T20:16:05.383Z,95807.59
2023-03-26T20:18:33.175Z,95795.44
2023-03-26T20:20:59.840Z,95801.03
2023-03-26T20:23:28.826Z,95796.25
2023-03-26T20:25:55.822Z,95797.78
2023-03-26T20:28:24.441Z,95798.25
2023-03-26T20:30:54.424Z,95798.81
2023-03-26T20:33:25.627Z,95797.16
2023-03-26T20:35:53.677Z,95799.69
2023-03-26T20:38:24.026Z,95797.09
2023-03-26T20:40:56.177Z,95799.69
2023-03-26T20:43:25.024Z,95801.75
2023-03-26T20:45:51.967Z,95790.19
2023-03-26T20:48:18.452Z,95788.91
2023-03-26T20:50:50.818Z,95795.44
2023-03-26T20:53:19.343Z,95792.25
2023-03-26T20:55:46.737Z,95787.97
2023-03-26T20:58:15.023Z,95791.38
2023-03-26T21:00:44.522Z,95788.31
2023-03-26T21:03:15.761Z,95791.53
2023-03-26T21:05:43.187Z,95795.19
2023-03-26T21:08:17.142Z,95795.13
2023-03-26T21:10:45.542Z,95789.28
2023-03-26T21:13:30.775Z,95785.84
2023-03-26T21:15:58.493Z,95787.97
2023-03-26T21:18:26.081Z,95794.31
2023-03-26T21:21:14.109Z,95800.91
2023-03-26T21:23:59.154Z,95805.91
2023-03-26T21:26:35.042Z,95811.13
2023-03-26T21:29:08.636Z,95799.75
2023-03-26T21:31:37.646Z,95799.81
2023-03-26T21:34:05.522Z,95802.44
2023-03-26T21:36:32.326Z,95804.91
2023-03-26T21:38:59.550Z,95801.59
2023-03-26T21:41:45.440Z,95802.03
2023-03-26T21:44:14.125Z,95798.06
2023-03-26T21:46:45.463Z,95799.50
2023-03-26T21:49:13.981Z,95794.47
2023-03-26T21:51:40.904Z,95796.31
2023-03-26T21:54:28.926Z,95794.78
2023-03-26T21:57:13.761Z,95789.13
2023-03-26T21:59:40.405Z,95789.00
2023-03-26T22:02:22.716Z,95783.16
2023-03-26T22:04:54.481Z,95778.25
2023-03-26T22:07:30.557Z,95788.91
2023-03-26T22:09:57.259Z,95778.31
2023-03-26T22:12:28.393Z,95775.31
2023-03-26T22:14:54.798Z,95773.91
2023-03-26T22:17:22.646Z,95778.94
2023-03-26T22:19:49.088Z,95785.34
2023-03-26T22:22:15.588Z,95778.84
2023-03-26T22:24:42.225Z,95797.97
2023-03-26T22:27:08.775Z,95799.91
2023-03-26T22:29:35.216Z,95797.66
2023-03-26T22:32:03.576Z,95804.19
2023-03-26T22:34:30.609Z,95799.34
2023-03-26T22:36:57.286Z,95799.72
2023-03-26T22:39:23.965Z,95810.34
2023-03-26T22:41:50.432Z,95802.19
2023-03-26T22:44:20.331Z,95810.53
2023-03-26T22:46:51.045Z,95815.47
2023-03-26T22:49:17.823Z,95814.19
2023-03-26T22:51:44.335Z,95824.88
2023-03-26T22:54:11.107Z,95825.13
2023-03-26T22:56:37.952Z,95827.75
2023-03-26T22:59:04.598Z,95837.00
2023-03-26T23:01:31.268Z,95848.13
2023-03-26T23:03:57.894Z,95849.88
2023-03-26T23:06:25.093Z,95861.94
2023-03-26T23:08:51.509Z,95861.44
2023-03-26T23:11:19.756Z,95862.09
2023-03-26T23:13:47.529Z,95870.03
2023-03-26T23:16:14.785Z,95871.63
2023-03-26T23:18:41.529Z,95877.47
2023-03-26T23:21:16.988Z,95868.53
2023-03-26T23:23:43.470Z,95883.16
2023-03-26T23:26:10.739Z,95883.66
2023-03-26T23:28:38.217Z,95885.13
2023-03-26T23:31:06.928Z,95884.94
2023-03-26T23:33:36.586Z,95892.41
2023-03-26T23:36:10.724Z,95903.34
2023-03-26T23:38:43.817Z,95899.84
2023-03-26T23:41:14.812Z,95900.78
2023-03-26T23:43:53.513Z,95908.13
2023-03-26T23:46:23.763Z,95908.41
2023-03-26T23:48:52.387Z,95916.19
2023-03-26T23:51:22.268Z,95917.78
2023-03-26T23:53:49.517Z,95923.03
2023-03-26T23:56:16.280Z,95920.72
2023-03-26T23:58:42.993Z,95931.91
